Aviation Digital Data Service (ADDS)

Output produced by METARs form (1025 UTC 02 October 2014)
found at http://www.aviationweather.gov/adds/metars/
 
KILG 020951Z 33004KT 10SM CLR 14/13 A3010 RMK AO2 SLP194 T01390128
KILG 020546Z 0206/0306 35004KT P6SM SCT025 OVC100 
     TEMPO 0209/0212 4SM BR BKN025 
     FM021200 01008KT P6SM BKN030 
     FM021400 02009KT P6SM SCT030 BKN040 
     FM022200 07006KT P6SM BKN040